Latest Weather Observations for Braidwood

IDN60801

Issued at 8:12 am EDT Saturday 16 February 2019 (issued every 10 minutes, with the page automatically refreshed every 10 minutes)

About weather observations | Map of weather stations | Latest weather observations for NSW | Other Formats
Station Details ID: 069132 Name: BRAIDWOOD RACECOURSE AWS Lat: -35.43 Lon: 149.78 Height: 665.2 m
Data from the previous 72 hours. | See also: Recent months at Braidwood
Date/Time
EDT
Temp
°C
App
Temp
°C
Dew
Point
°C
Rel
Hum
%
Delta-T
°C
Wind Press
QNH
hPa
Press
MSL
hPa
Rain since
9am
mm
Dir  Spd
km/h
Gust
km/h
Spd
kts
Gust
kts
16/08:00am 12.4 12.9 11.6 95 0.4 CALM 0 0 0 0 1023.8 1021.1 0.0
16/07:30am 10.7 10.8 10.1 96 0.3 CALM 0 0 0 0 1023.6 1021.0 0.0
16/07:00am 8.9 8.5 8.3 96 0.3 CALM 0 0 0 0 1023.6 1021.0 0.0
16/06:30am 8.9 8.5 8.1 95 0.4 CALM 0 0 0 0 1023.3 1020.7 0.0
16/06:00am 8.5 8.0 7.7 95 0.4 CALM 0 0 0 0 1023.3 1020.7 0.0
16/05:30am 9.0 8.6 8.2 95 0.4 CALM 0 0 0 0 1023.5 1020.9 0.0
16/05:00am 9.2 8.8 8.3 94 0.4 CALM 0 0 0 0 1023.4 1020.8 0.0
16/04:30am 9.3 8.9 8.4 94 0.5 CALM 0 0 0 0 1023.5 1020.9 0.0
16/04:00am 10.0 9.8 9.2 95 0.4 CALM 0 0 0 0 1023.8 1021.1 0.0
16/03:30am 10.4 10.3 9.5 94 0.5 CALM 0 0 0 0 1023.9 1021.2 0.0
16/03:00am 10.5 10.4 9.4 93 0.6 CALM 0 0 0 0 1024.0 1021.3 0.0
16/02:30am 11.2 11.3 10.3 94 0.5 CALM 0 0 0 0 1024.1 1021.4 0.0
16/02:00am 11.9 12.2 11.0 94 0.5 CALM 0 0 0 0 1024.1 1021.4 0.0
16/01:30am 11.9 12.2 11.0 94 0.5 CALM 0 0 0 0 1024.6 1022.0 0.0
16/01:00am 12.3 12.7 11.2 93 0.6 CALM 0 0 0 0 1024.8 1022.2 0.0
16/12:30am 12.7 13.1 11.4 92 0.7 CALM 0 0 0 0 1024.9 1022.3 0.0
16/12:00am 12.7 12.7 11.3 91 0.8 S 2 2 1 1 1025.2 1022.6 0.0
 
Date/Time
EDT
Temp
°C
App
Temp
°C
Dew
Point
°C
Rel
Hum
%
Delta-T
°C
Wind Press
QNH
hPa
Press
MSL
hPa
Rain since
9am
mm
Dir  Spd
km/h
Gust
km/h
Spd
kts
Gust
kts
15/11:30pm 13.7 14.4 12.3 91 0.8 CALM 0 0 0 0 1025.5 1022.8 0.0
15/11:00pm 14.0 13.5 12.2 89 1.0 SE 6 6 3 3 1025.7 1023.0 0.0
15/10:30pm 14.5 14.1 12.4 87 1.2 SE 6 7 3 4 1025.8 1023.1 0.0
15/10:00pm 15.3 14.8 12.8 85 1.4 SE 7 9 4 5 1025.8 1023.1 0.0
15/09:30pm 15.8 15.4 13.1 84 1.6 SE 7 11 4 6 1025.7 1023.0 0.0
15/09:00pm 16.3 14.9 13.4 83 1.7 SE 13 19 7 10 1025.4 1022.7 0.0
15/08:30pm 17.0 15.7 13.7 81 1.9 SE 13 19 7 10 1024.9 1022.3 0.0
15/08:00pm 17.8 16.6 14.1 79 2.2 SE 13 19 7 10 1024.8 1022.2 0.0
15/07:30pm 18.1 16.9 14.0 77 2.4 ESE 13 17 7 9 1024.5 1021.8 0.0
15/07:00pm 18.6 16.2 13.9 74 2.8 ESE 19 26 10 14 1024.1 1021.4 0.0
15/06:30pm 20.3 17.5 14.2 68 3.6 ESE 22 28 12 15 1023.6 1021.0 0.0
15/06:00pm 21.4 18.7 14.6 65 4.1 ESE 22 30 12 16 1023.5 1020.9 0.0
15/05:30pm 22.1 19.4 14.7 63 4.5 ESE 22 30 12 16 1023.3 1020.7 0.0
15/05:00pm 23.2 20.5 15.5 62 4.7 ESE 24 32 13 17 1022.9 1020.2 0.0
15/04:30pm 24.3 22.5 15.5 58 5.5 ESE 19 28 10 15 1022.8 1020.1 0.0
15/04:00pm 24.3 21.9 13.8 52 6.3 E 19 30 10 16 1023.1 1020.4 0.0
15/03:30pm 25.4 24.5 10.8 40 8.4 E 6 13 3 7 1023.3 1020.7 0.0
15/03:00pm 24.5 22.9 8.9 37 8.7 E 7 15 4 8 1023.6 1021.0 0.0
15/02:30pm 24.6 23.8 11.2 43 7.8 ESE 6 13 3 7 1024.0 1021.3 0.0
15/02:00pm 24.3 23.8 11.9 45 7.2 NNE 6 15 3 8 1024.3 1021.6 0.0
15/01:30pm 23.3 23.2 12.0 49 6.6 SE 4 9 2 5 1024.6 1022.0 0.0
15/01:00pm 22.7 22.7 12.3 52 6.1 ESE 4 9 2 5 1024.9 1022.3 0.0
15/12:30pm 22.1 21.6 10.9 49 6.4 NNE 4 9 2 5 1025.2 1022.6 0.0
15/12:00pm 21.6 21.3 11.6 53 5.7 NNE 4 13 2 7 1025.6 1022.9 0.0
15/11:30am 21.6 21.5 13.2 59 5.0 NNE 6 11 3 6 1026.0 1023.4 0.0
15/11:00am 20.2 19.7 11.9 59 4.7 NNW 6 11 3 6 1026.1 1023.5 0.0
15/10:30am 19.2 18.6 11.7 62 4.3 N 6 13 3 7 1026.1 1023.5 0.0
15/10:00am 18.5 18.1 12.3 67 3.5 NNW 6 9 3 5 1026.2 1023.6 0.0
15/09:30am 16.9 16.2 11.4 70 3.1 N 6 11 3 6 1026.1 1023.5 0.0
15/09:00am 17.0 16.8 11.7 71 3.0 WNW 4 9 2 5 1026.1 1023.5 0.0
15/08:35am 15.9 16.4 11.7 76 2.4 CALM 0 0 0 0 1026.0 1023.4 0.0
15/08:30am 15.9 16.4 11.7 76 2.4 CALM 0 0 0 0 1025.9 1023.3 0.0
15/08:01am 15.3 15.8 11.7 79 2.0 CALM 0 2 0 1 1025.7 1023.0 0.0
15/08:00am 15.3 15.8 11.7 79 2.0 CALM 0 2 0 1 1025.7 1023.0 0.0
15/07:30am 14.8 15.8 13.2 90 0.9 CALM 0 0 0 0 1025.1 1022.5 0.0
15/07:00am 12.9 13.4 11.5 91 0.8 CALM 0 0 0 0 1024.9 1022.3 0.0
15/06:30am 13.9 14.6 12.1 89 1.0 CALM 0 0 0 0 1024.8 1022.2 0.0
15/06:00am 14.1 14.8 12.3 89 1.0 CALM 0 0 0 0 1024.6 1022.0 0.0
15/05:30am 14.1 14.9 12.5 90 0.9 CALM 0 0 0 0 1024.5 1021.8 0.0
15/05:00am 14.1 14.2 12.7 91 0.8 SSE 4 6 2 3 1024.4 1021.7 0.0
15/04:30am 13.9 14.3 12.5 91 0.8 SE 2 4 1 2 1024.3 1021.6 0.0
15/04:00am 13.9 13.9 12.3 90 0.9 SE 4 4 2 2 1024.3 1021.6 0.0
15/03:30am 14.1 13.7 12.3 89 1.0 SE 6 9 3 5 1024.4 1021.7 0.0
15/03:00am 14.5 14.2 12.7 89 1.0 SE 6 9 3 5 1024.2 1021.5 0.0
15/02:55am 14.4 14.0 12.4 88 1.1 SE 6 6 3 3 1024.2 1021.5 0.0
15/02:35am 14.7 14.2 12.7 88 1.1 ESE 7 9 4 5 1024.1 1021.4 0.0
15/02:30am 14.7 14.4 12.6 87 1.2 SE 6 9 3 5 1024.2 1021.5 0.0
15/02:25am 14.7 14.4 12.6 87 1.2 ESE 6 7 3 4 1024.2 1021.5 0.0
15/02:00am 14.9 14.6 12.8 87 1.2 SE 6 9 3 5 1024.2 1021.5 0.0
15/01:30am 14.9 14.1 12.8 87 1.2 ESE 9 13 5 7 1024.4 1021.7 0.0
15/01:00am 15.0 14.8 12.9 87 1.2 SE 6 9 3 5 1024.4 1021.7 0.0
15/12:30am 14.8 14.3 12.7 87 1.2 SE 7 13 4 7 1024.3 1021.6 0.0
15/12:00am 14.8 14.0 12.8 88 1.1 SSE 9 13 5 7 1024.2 1021.5 0.0
 
Date/Time
EDT
Temp
°C
App
Temp
°C
Dew
Point
°C
Rel
Hum
%
Delta-T
°C
Wind Press
QNH
hPa
Press
MSL
hPa
Rain since
9am
mm
Dir  Spd
km/h
Gust
km/h
Spd
kts
Gust
kts
14/11:30pm 15.2 14.3 12.7 85 1.4 SE 9 15 5 8 1024.1 1021.4 0.0
14/11:00pm 15.4 14.6 12.9 85 1.4 SSE 9 13 5 7 1024.2 1021.5 0.0
14/10:30pm 15.4 13.7 12.5 83 1.6 SSE 13 19 7 10 1024.1 1021.4 0.0
14/10:00pm 15.5 13.8 12.6 83 1.6 SSE 13 19 7 10 1023.8 1021.1 0.0
14/09:30pm 15.4 13.7 12.5 83 1.6 SE 13 20 7 11 1023.4 1020.8 0.0
14/09:11pm 15.0 13.8 12.7 86 1.3 SE 11 17 6 9 1023.0 1020.3 0.0
14/09:00pm 14.9 13.1 12.2 84 1.5 SSE 13 17 7 9 1022.6 1019.9 0.0
14/08:30pm 15.6 13.8 12.2 80 1.9 SSE 13 19 7 10 1022.0 1019.4 0.0
14/08:00pm 16.4 14.7 12.4 77 2.3 SE 13 22 7 12 1021.4 1018.7 0.0
14/07:30pm 17.4 14.4 12.1 71 3.0 SE 19 24 10 13 1020.7 1018.0 0.0
14/07:00pm 19.1 15.6 12.1 64 4.0 ESE 22 30 12 16 1019.8 1017.1 0.0
14/06:30pm 21.0 17.8 11.9 56 5.2 ESE 20 28 11 15 1019.1 1016.3 0.0
14/06:00pm 24.4 22.2 3.1 25 10.7 NNE 4 9 2 5 1018.5 1015.8 0.0
14/05:30pm 24.5 21.6 4.8 28 10.2 NE 9 17 5 9 1018.4 1015.7 0.0
14/05:00pm 24.9 22.6 4.6 27 10.5 NNE 6 13 3 7 1018.4 1015.7 0.0
14/04:30pm 24.4 21.9 4.7 28 10.2 NNE 7 17 4 9 1018.4 1015.7 0.0
14/04:00pm 24.5 22.1 5.3 29 10.0 NNE 7 15 4 8 1018.5 1015.8 0.0
14/03:30pm 23.8 21.1 5.7 31 9.5 NE 9 19 5 10 1018.5 1015.8 0.0
14/03:00pm 24.0 21.8 6.3 32 9.4 N 7 15 4 8 1019.0 1016.2 0.0
14/02:30pm 22.6 19.6 4.2 30 9.3 NNE 9 15 5 8 1019.0 1016.2 0.0
14/02:00pm 22.7 20.0 5.6 33 8.9 NNW 9 20 5 11 1019.4 1016.7 0.0
14/01:30pm 21.9 19.8 6.6 37 8.1 NNE 7 17 4 9 1019.6 1016.9 0.0
14/01:00pm 21.2 19.3 7.4 41 7.3 N 7 17 4 9 1019.9 1017.2 0.0
14/12:30pm 21.1 19.5 8.7 45 6.8 N 7 15 4 8 1020.2 1017.5 0.0
14/12:00pm 19.1 16.7 6.9 45 6.3 NNW 9 17 5 9 1020.4 1017.7 0.0
14/11:30am 19.2 17.0 7.9 48 6.0 N 9 20 5 11 1020.6 1017.9 0.0
14/11:00am 17.8 16.4 9.4 58 4.5 N 7 15 4 8 1020.7 1018.0 0.0
14/10:30am 16.8 15.4 9.7 63 3.8 N 7 17 4 9 1020.9 1018.2 0.0
14/10:00am 15.3 13.9 8.8 65 3.4 NNE 6 15 3 8 1020.9 1018.2 0.0
14/09:51am 15.9 14.9 10.2 69 3.1 N 6 11 3 6 1021.0 1018.3 0.0
14/09:30am 14.0 12.5 8.6 70 2.8 NNW 6 11 3 6 1021.1 1018.4 0.0
14/09:21am 14.0 13.2 9.6 75 2.3 NNW 4 11 2 6 1021.0 1018.3 0.0
14/09:00am 12.4 11.0 8.7 78 1.9 NNW 6 13 3 7 1020.8 1018.1 0.0
14/08:30am 11.7 11.6 9.3 85 1.3 CALM 0 0 0 0 1020.3 1017.6 0.0
14/08:00am 9.3 9.0 8.7 96 0.3 CALM 0 0 0 0 1019.9 1017.2 0.0
14/07:30am 7.0 6.2 6.4 96 0.3 CALM 0 0 0 0 1019.5 1016.8 0.0
14/07:00am 5.2 4.0 4.5 95 0.3 CALM 0 0 0 0 1019.4 1016.7 0.0
14/06:30am 5.4 4.2 4.7 95 0.3 CALM 0 0 0 0 1019.1 1016.3 0.0
14/06:00am 6.2 5.2 5.5 95 0.3 CALM 0 0 0 0 1018.5 1015.8 0.0
14/05:30am 6.1 5.1 5.4 95 0.3 CALM 0 0 0 0 1018.1 1015.4 0.0
14/05:00am 6.3 5.2 5.3 93 0.5 CALM 0 0 0 0 1017.7 1014.9 0.0
14/04:30am 6.6 5.6 5.6 93 0.5 CALM 0 0 0 0 1017.6 1014.8 0.0
14/04:00am 6.8 5.8 5.6 92 0.6 CALM 0 0 0 0 1017.5 1014.7 0.0
14/03:30am 7.0 6.0 5.5 90 0.7 CALM 0 0 0 0 1017.5 1014.7 0.0
14/03:00am 7.4 6.4 5.7 89 0.8 CALM 0 0 0 0 1017.5 1014.7 0.0
14/02:30am 8.7 7.9 6.5 86 1.1 CALM 0 0 0 0 1017.4 1014.6 0.0
14/02:00am 9.5 8.9 7.6 88 0.9 CALM 0 0 0 0 1017.4 1014.6 0.0
14/01:30am 9.2 8.6 7.3 88 0.9 CALM 0 0 0 0 1017.6 1014.8 0.0
14/01:00am 9.7 9.1 7.5 86 1.1 CALM 0 0 0 0 1017.8 1015.0 0.0
14/12:30am 9.8 9.2 7.4 85 1.2 CALM 0 0 0 0 1017.6 1014.8 0.0
14/12:00am 9.6 8.8 6.3 80 1.6 CALM 0 0 0 0 1017.5 1014.7 0.0
 
Date/Time
EDT
Temp
°C
App
Temp
°C
Dew
Point
°C
Rel
Hum
%
Delta-T
°C
Wind Press
QNH
hPa
Press
MSL
hPa
Rain since
9am
mm
Dir  Spd
km/h
Gust
km/h
Spd
kts
Gust
kts
13/11:30pm 10.9 9.4 6.8 76 2.0 SSE 4 4 2 2 1017.2 1014.5 0.0
13/11:00pm 11.7 10.3 7.4 75 2.2 SSE 4 6 2 3 1017.1 1014.4 0.0
13/10:30pm 11.7 9.8 7.4 75 2.2 SE 7 9 4 5 1017.1 1014.4 0.0
13/10:00pm 11.8 10.0 7.1 73 2.3 SE 6 9 3 5 1016.9 1014.2 0.0
13/09:30pm 11.5 9.4 6.8 73 2.3 ESE 7 7 4 4 1016.5 1013.8 0.0
13/09:00pm 12.2 10.1 6.5 68 2.8 ESE 7 11 4 6 1016.1 1013.3 0.0
13/08:30pm 12.5 9.1 6.1 65 3.1 ESE 13 19 7 10 1015.4 1012.7 0.0
13/08:00pm 12.5 8.8 6.1 65 3.1 ESE 15 24 8 13 1014.4 1011.6 0.0
13/07:30pm 12.8 8.3 6.2 64 3.2 ESE 19 28 10 15 1013.5 1010.7 0.0
13/07:00pm 13.3 8.3 6.4 63 3.4 ESE 22 33 12 18 1013.1 1010.3 0.0
13/06:30pm 14.4 8.7 6.7 60 3.9 ESE 26 33 14 18 1012.3 1009.5 0.0
13/06:00pm 15.3 9.5 8.1 62 3.8 ESE 28 39 15 21 1011.6 1008.8 0.0
13/05:30pm 16.3 10.0 8.8 61 4.0 ESE 32 41 17 22 1010.7 1007.9 0.0
13/05:00pm 16.8 10.8 8.5 58 4.4 ESE 30 41 16 22 1010.2 1007.4 0.0
13/04:30pm 17.9 12.9 8.2 53 5.1 SE 24 37 13 20 1009.4 1006.5 0.0
13/04:00pm 21.9 18.0 -4.2 17 11.2 WNW 7 11 4 6 1008.9 1006.1 0.0
13/03:30pm 21.1 16.0 -4.9 17 10.9 W 13 26 7 14 1008.8 1006.0 0.0
13/03:00pm 20.7 16.4 -4.4 18 10.6 WSW 9 17 5 9 1008.6 1005.8 0.0
13/02:30pm 21.1 16.0 -2.0 21 10.3 WNW 15 26 8 14 1008.5 1005.7 0.0
13/02:00pm 20.5 16.7 -3.9 19 10.4 NW 7 26 4 14 1008.5 1005.7 0.0
13/01:30pm 20.2 15.9 -1.6 23 9.7 W 11 19 6 10 1008.4 1005.5 0.0
13/01:00pm 19.5 14.7 -2.8 22 9.6 NW 13 26 7 14 1008.3 1005.4 0.0
13/12:30pm 19.0 14.6 -2.6 23 9.3 W 11 22 6 12 1008.3 1005.4 0.0
13/12:00pm 18.3 15.2 0.0 29 8.3 SSE 6 20 3 11 1008.2 1005.3 0.0
13/11:30am 17.8 13.1 0.9 32 7.7 WNW 15 28 8 15 1008.2 1005.3 0.0
13/11:00am 17.3 14.2 3.6 40 6.6 NW 9 20 5 11 1008.2 1005.3 0.0
13/10:30am 15.9 13.9 7.1 56 4.5 WSW 7 15 4 8 1008.0 1005.1 0.0
13/10:00am 13.2 11.4 7.9 70 2.7 SW 7 13 4 7 1008.0 1005.1 0.0
13/09:30am 14.4 13.0 9.6 73 2.6 W 7 13 4 7 1007.6 1004.8 0.0
13/09:00am 13.2 10.8 7.0 66 3.1 W 9 15 5 8 1007.4 1004.6 0.8
13/08:30am 12.9 11.4 9.0 77 2.0 WNW 7 11 4 6 1007.1 1004.2 0.8

Other Formats:

Comma delimited format used in spreadsheet applications
http://www.bom.gov.au/fwo/IDN60801/IDN60801.94927.axf

JavaScript Object Notation format (JSON) in row-major order
http://www.bom.gov.au/fwo/IDN60801/IDN60801.94927.json